Time;durP1;ratioP1;P1;durP2;ratioP2;P2;SDS_P1;SDS_P2;PMS_P1;PMS_P2;Temp;Humidity;BMP_temperature;BMP_pressure;BME280_temperature;BME280_humidity;BME280_pressure;Samples;Min_cycle;Max_cycle;Signal;HPM_P1;HPM_P2
2021/12/07 00:00:32;;;;;;;33.60;18.40;;;;;;;5.82;52.31;94797.94;5030226;28;20033;-73
2021/12/07 00:02:57;;;;;;;32.85;18.35;;;;;;;5.89;52.30;94814.25;5033715;28;20428;-73
2021/12/07 00:05:23;;;;;;;30.77;17.00;;;;;;;5.87;52.56;94806.59;5026680;28;20078;-73
2021/12/07 00:07:48;;;;;;;35.50;19.50;;;;;;;5.85;52.14;94811.38;5030935;28;20021;-73
2021/12/07 00:10:15;;;;;;;36.92;19.02;;;;;;;5.86;52.76;94799.75;5030472;28;20021;-75
2021/12/07 00:12:44;;;;;;;35.13;19.65;;;;;;;5.91;52.36;94806.81;5030415;28;20085;-73
2021/12/07 00:15:12;;;;;;;30.50;19.15;;;;;;;5.93;52.46;94809.97;5031038;28;20018;-73
2021/12/07 00:17:37;;;;;;;32.72;19.05;;;;;;;5.90;52.56;94803.41;5030079;28;20060;-73
2021/12/07 00:20:13;;;;;;;39.63;21.98;;;;;;;6.01;52.26;94806.72;5030127;28;20471;-73
2021/12/07 00:22:42;;;;;;;33.20;19.85;;;;;;;6.05;52.46;94812.25;5029033;28;20032;-72
2021/12/07 00:25:09;;;;;;;34.47;20.35;;;;;;;6.07;52.39;94816.16;5030534;28;20033;-73
2021/12/07 00:27:34;;;;;;;33.10;19.38;;;;;;;6.11;52.02;94814.53;5030881;28;20044;-73
2021/12/07 00:30:01;;;;;;;36.28;20.65;;;;;;;6.17;52.31;94808.09;5030634;28;20025;-73
2021/12/07 00:32:32;;;;;;;32.10;20.48;;;;;;;6.22;52.22;94805.41;5030102;28;20382;-74
2021/12/07 00:35:18;;;;;;;30.60;18.95;;;;;;;6.24;52.06;94789.25;5030957;28;20037;-73
2021/12/07 00:37:47;;;;;;;34.78;19.92;;;;;;;6.40;51.68;94781.94;5030988;28;20112;-73
2021/12/07 00:40:17;;;;;;;34.88;19.95;;;;;;;6.52;52.10;94777.00;5030685;28;20529;-73
2021/12/07 00:42:42;;;;;;;35.17;20.80;;;;;;;6.65;51.72;94770.97;5030520;28;20022;-73
2021/12/07 00:45:09;;;;;;;32.60;19.42;;;;;;;6.73;51.23;94758.97;5030641;28;20044;-73
2021/12/07 00:47:34;;;;;;;28.05;18.67;;;;;;;6.89;50.77;94760.28;5028941;28;20064;-74
2021/12/07 00:49:59;;;;;;;30.38;18.85;;;;;;;7.03;50.90;94779.63;5029137;28;20108;-74
2021/12/07 00:52:25;;;;;;;25.88;17.50;;;;;;;7.06;50.15;94774.81;5030356;28;20021;-73
2021/12/07 00:54:50;;;;;;;32.10;19.65;;;;;;;7.01;50.32;94762.47;5030538;28;20044;-74
2021/12/07 00:57:16;;;;;;;22.65;16.35;;;;;;;7.01;50.46;94759.84;5031026;28;20022;-74
2021/12/07 00:59:41;;;;;;;23.02;16.27;;;;;;;6.97;49.71;94764.94;5030208;28;20021;-73
2021/12/07 01:02:07;;;;;;;23.48;15.90;;;;;;;7.00;50.12;94759.06;5029822;28;20036;-73
2021/12/07 01:04:33;;;;;;;21.05;15.05;;;;;;;6.98;49.61;94757.78;5034153;28;20029;-73
2021/12/07 01:07:03;;;;;;;21.35;15.43;;;;;;;6.98;49.98;94757.78;5033029;28;20079;-74
2021/12/07 01:09:41;;;;;;;25.73;16.67;;;;;;;7.04;49.82;94767.19;5028053;28;20029;-74
2021/12/07 01:25:55;;;;;;;21.88;14.60;;;;;;;6.89;50.81;94759.50;5029571;28;20462;-73
2021/12/07 01:33:48;;;;;;;18.55;12.68;;;;;;;6.92;49.99;94746.50;5032183;28;20163;-73
2021/12/07 01:41:28;;;;;;;13.43;12.02;;;;;;;7.08;49.89;94748.91;5029663;28;20036;-74
2021/12/07 01:46:45;;;;;;;12.52;11.23;;;;;;;7.19;49.54;94735.19;5029854;28;20026;-74
2021/12/07 01:59:59;;;;;;;10.45;8.45;;;;;;;7.77;48.26;94737.25;5029321;28;20168;-73
2021/12/07 02:02:27;;;;;;;9.70;7.90;;;;;;;7.85;48.17;94732.38;5028262;28;20028;-73
2021/12/07 02:04:54;;;;;;;8.45;7.53;;;;;;;7.97;47.73;94727.34;5034621;28;20415;-75
2021/12/07 02:07:20;;;;;;;7.88;7.07;;;;;;;8.01;47.82;94733.63;5037783;28;20024;-73
2021/12/07 02:09:51;;;;;;;7.93;6.57;;;;;;;7.97;47.26;94719.41;5028890;28;20109;-73
2021/12/07 02:12:16;;;;;;;6.43;5.82;;;;;;;8.05;47.27;94730.09;5028847;28;20078;-73
2021/12/07 02:14:43;;;;;;;6.63;6.03;;;;;;;8.12;47.10;94718.28;5029143;28;20034;-73
2021/12/07 02:17:12;;;;;;;6.43;5.82;;;;;;;8.14;47.08;94713.47;5028624;28;20372;-72
2021/12/07 02:19:38;;;;;;;6.97;5.50;;;;;;;8.25;46.53;94720.13;5032212;28;20479;-73
2021/12/07 02:22:03;;;;;;;6.28;5.68;;;;;;;8.04;46.62;94714.50;5028588;28;20036;-73
2021/12/07 02:24:30;;;;;;;6.97;5.25;;;;;;;8.12;46.66;94713.78;5032224;28;20029;-73
2021/12/07 02:26:57;;;;;;;6.07;5.30;;;;;;;8.13;46.68;94696.78;5031463;28;20029;-72
2021/12/07 02:29:23;;;;;;;4.75;4.32;;;;;;;8.07;46.69;94701.41;5032397;28;20462;-73
2021/12/07 02:31:50;;;;;;;5.53;5.03;;;;;;;8.00;46.89;94701.06;5031009;28;20056;-73
2021/12/07 02:34:16;;;;;;;7.10;4.78;;;;;;;8.04;46.46;94704.69;5035418;28;20079;-73
2021/12/07 02:36:42;;;;;;;4.90;4.43;;;;;;;8.02;47.10;94703.41;5036540;28;20033;-73
2021/12/07 02:39:09;;;;;;;5.15;4.03;;;;;;;7.96;46.69;94701.94;5030928;28;20025;-73
2021/12/07 02:41:35;;;;;;;3.92;3.53;;;;;;;7.96;46.36;94686.84;5032093;28;20022;-74
2021/12/07 02:44:01;;;;;;;3.72;3.20;;;;;;;7.89;46.74;94696.28;5032400;28;20029;-73
2021/12/07 02:46:26;;;;;;;3.95;3.55;;;;;;;7.92;46.66;94698.31;5032485;28;20025;-74
2021/12/07 02:48:51;;;;;;;4.50;3.53;;;;;;;7.84;46.96;94691.09;5029769;28;20025;-72
2021/12/07 02:51:17;;;;;;;3.75;3.28;;;;;;;7.98;46.71;94705.84;5031341;28;20025;-73
2021/12/07 02:53:43;;;;;;;4.28;3.38;;;;;;;7.99;46.46;94696.06;5030152;28;20025;-73
2021/12/07 02:56:09;;;;;;;3.13;2.85;;;;;;;8.00;46.11;94697.63;5031875;28;20108;-73
2021/12/07 02:58:36;;;;;;;3.80;3.40;;;;;;;8.14;46.35;94698.38;5030857;28;20045;-74
2021/12/07 03:01:10;;;;;;;4.05;3.75;;;;;;;8.15;46.38;94697.28;5031659;28;20033;-73
2021/12/07 03:03:50;;;;;;;4.00;3.45;;;;;;;8.16;46.11;94696.22;5027404;28;20540;-72
2021/12/07 03:09:36;;;;;;;4.13;3.63;;;;;;;8.29;45.92;94716.59;5031712;28;20082;-73
2021/12/07 03:28:17;;;;;;;3.67;3.08;;;;;;;6.93;50.40;94739.34;5031694;28;20044;-73
2021/12/07 03:30:43;;;;;;;3.90;2.65;;;;;;;6.80;51.72;94743.53;5031692;28;20108;-72
2021/12/07 03:33:08;;;;;;;3.25;2.95;;;;;;;5.54;54.72;94737.06;5030429;28;20082;-72
2021/12/07 03:35:35;;;;;;;6.30;2.70;;;;;;;5.55;56.30;94743.91;5034245;28;20033;-71
2021/12/07 03:38:01;;;;;;;2.75;2.55;;;;;;;5.17;57.01;94743.78;5031384;28;20032;-69
2021/12/07 03:40:27;;;;;;;3.33;2.90;;;;;;;5.62;56.95;94752.25;5031115;28;20033;-69
2021/12/07 03:42:52;;;;;;;3.33;3.03;;;;;;;4.95;58.37;94746.09;5031226;28;20391;-69
2021/12/07 03:45:18;;;;;;;5.00;2.80;;;;;;;5.66;57.30;94732.16;5031493;28;20028;-69
2021/12/07 03:47:44;;;;;;;4.85;2.42;;;;;;;6.05;56.72;94725.09;5030788;28;20033;-70
2021/12/07 03:50:11;;;;;;;3.17;2.92;;;;;;;5.75;56.84;94737.59;5034343;28;20521;-70
2021/12/07 03:52:37;;;;;;;2.78;2.50;;;;;;;6.06;56.29;94730.09;5029714;28;20112;-69
2021/12/07 03:55:04;;;;;;;2.88;2.55;;;;;;;5.58;57.28;94735.44;5029662;28;20598;-70
2021/12/07 03:57:29;;;;;;;3.17;2.70;;;;;;;5.76;57.54;94739.16;5029613;28;20452;-70
2021/12/07 03:59:55;;;;;;;2.90;2.70;;;;;;;6.23;56.62;94743.56;5030515;28;20026;-70
2021/12/07 04:02:21;;;;;;;3.15;2.83;;;;;;;6.33;56.24;94726.03;5029988;28;20037;-70
2021/12/07 04:04:46;;;;;;;3.45;2.53;;;;;;;5.83;56.72;94736.94;5040751;28;20024;-69
2021/12/07 04:07:11;;;;;;;2.55;2.30;;;;;;;5.57;57.28;94740.97;5031911;28;20034;-70
2021/12/07 04:09:37;;;;;;;2.90;2.58;;;;;;;5.92;57.25;94735.28;5030226;28;20036;-70
2021/12/07 04:12:02;;;;;;;3.45;2.88;;;;;;;6.06;56.69;94729.31;5030135;28;20036;-70
2021/12/07 04:14:28;;;;;;;2.38;2.17;;;;;;;5.88;56.84;94720.25;5030446;28;20079;-70
2021/12/07 04:16:54;;;;;;;3.13;2.47;;;;;;;5.70;57.29;94735.81;5029322;28;20101;-73
2021/12/07 04:19:19;;;;;;;2.33;2.13;;;;;;;6.22;56.36;94728.81;5035773;28;20108;-70
2021/12/07 04:21:46;;;;;;;3.90;2.00;;;;;;;6.18;55.99;94730.44;5034985;28;20048;-70
2021/12/07 04:24:12;;;;;;;4.10;2.00;;;;;;;6.37;56.53;94734.94;5030215;28;20029;-70
2021/12/07 04:26:38;;;;;;;2.28;1.60;;;;;;;6.03;56.19;94722.72;5029059;28;20029;-70
2021/12/07 04:29:04;;;;;;;3.03;1.90;;;;;;;5.54;57.36;94731.78;5029868;28;20021;-71
2021/12/07 04:31:29;;;;;;;3.33;2.00;;;;;;;5.59;57.75;94726.44;5029756;28;20494;-70
2021/12/07 04:33:55;;;;;;;2.20;2.00;;;;;;;5.93;56.80;94722.88;5036766;28;20048;-73
2021/12/07 04:36:20;;;;;;;2.20;2.00;;;;;;;5.70;57.08;94737.66;5030484;28;20056;-71
2021/12/07 04:38:46;;;;;;;2.38;2.17;;;;;;;6.24;57.23;94717.94;5030458;28;20033;-68
2021/12/07 04:41:12;;;;;;;2.92;1.98;;;;;;;5.64;57.42;94712.41;5028562;28;20032;-73
2021/12/07 04:43:39;;;;;;;1.77;1.67;;;;;;;5.68;58.14;94737.94;5029752;28;20033;-72
2021/12/07 04:46:28;;;;;;;3.58;1.58;;;;;;;5.81;58.01;94719.84;5030365;28;20026;-78
2021/12/07 04:59:38;;;;;;;2.50;2.30;;;;;;;6.50;58.03;94729.72;5030988;28;20060;-76
2021/12/07 05:02:04;;;;;;;2.10;1.90;;;;;;;5.94;58.21;94729.75;5030624;28;20030;-79
2021/12/07 05:04:33;;;;;;;2.08;1.88;;;;;;;6.11;57.96;94747.72;5033150;28;20086;-72
2021/12/07 05:07:08;;;;;;;2.80;1.60;;;;;;;5.65;59.14;94733.22;5029235;28;20041;-72
2021/12/07 05:14:44;;;;;;;1.60;1.50;;;;;;;5.77;58.69;94761.84;5030112;28;20029;-72
2021/12/07 05:38:53;;;;;;;2.43;1.43;;;;;;;5.38;60.85;94796.31;5013109;28;20041;-71
2021/12/07 05:41:18;;;;;;;1.52;1.40;;;;;;;5.83;59.24;94779.19;5028580;28;20494;-71
2021/12/07 05:43:44;;;;;;;1.45;1.35;;;;;;;6.01;60.09;94788.25;5029383;28;20061;-68
2021/12/07 05:46:09;;;;;;;1.58;1.48;;;;;;;6.61;60.68;94800.94;5027789;28;20025;-70
2021/12/07 05:48:35;;;;;;;1.00;1.00;;;;;;;6.37;60.50;94791.22;5026970;28;20438;-71
2021/12/07 05:51:00;;;;;;;1.02;1.00;;;;;;;5.58;59.66;94796.09;5040010;28;20111;-73
2021/12/07 05:53:26;;;;;;;2.38;1.30;;;;;;;6.01;59.05;94796.16;5027443;28;20027;-72
2021/12/07 05:55:51;;;;;;;1.73;0.85;;;;;;;5.12;60.85;94814.22;5029257;28;20537;-72
2021/12/07 05:58:19;;;;;;;2.58;1.10;;;;;;;5.59;59.32;94802.16;5030996;28;20033;-72
2021/12/07 06:00:46;;;;;;;1.95;1.27;;;;;;;5.70;59.44;94816.81;5031443;28;20034;-66
2021/12/07 06:03:12;;;;;;;2.65;1.33;;;;;;;5.51;60.27;94816.75;5032371;28;20030;-72
2021/12/07 06:05:39;;;;;;;1.02;0.93;;;;;;;4.78;61.09;94804.47;5037224;28;20288;-75
2021/12/07 06:08:05;;;;;;;2.13;1.40;;;;;;;5.35;59.87;94816.09;5032699;28;20035;-69
2021/12/07 06:10:31;;;;;;;1.17;0.88;;;;;;;4.93;61.17;94812.25;5032566;28;20109;-66
2021/12/07 06:12:56;;;;;;;1.58;1.05;;;;;;;4.92;60.72;94804.63;5033285;28;20089;-77
2021/12/07 06:15:23;;;;;;;0.95;0.95;;;;;;;4.96;60.77;94810.91;5032216;28;20037;-70
2021/12/07 06:17:51;;;;;;;1.83;1.17;;;;;;;5.27;59.48;94811.44;5031967;28;20075;-73
2021/12/07 06:20:17;;;;;;;1.98;1.17;;;;;;;5.29;59.61;94813.81;5035657;28;20051;-69
2021/12/07 06:22:42;;;;;;;1.40;1.30;;;;;;;5.41;59.46;94819.47;5031738;28;20025;-72
2021/12/07 06:25:08;;;;;;;2.13;1.50;;;;;;;5.50;58.79;94824.94;5032530;28;20660;-72
2021/12/07 06:27:34;;;;;;;3.17;1.40;;;;;;;5.02;59.98;94803.78;5032630;28;20033;-74
2021/12/07 06:30:00;;;;;;;3.20;1.55;;;;;;;5.88;58.66;94826.63;5033797;28;20033;-68
2021/12/07 06:32:26;;;;;;;1.10;1.00;;;;;;;5.13;59.18;94821.06;5031678;28;20390;-68
2021/12/07 06:34:52;;;;;;;1.55;1.35;;;;;;;4.75;61.56;94833.19;5031418;28;20029;-69
2021/12/07 06:37:18;;;;;;;4.97;1.42;;;;;;;5.47;59.32;94832.34;5031892;28;20711;-69
2021/12/07 06:39:44;;;;;;;3.67;1.77;;;;;;;4.98;60.57;94835.16;5031877;28;20104;-68
2021/12/07 06:42:10;;;;;;;2.80;1.70;;;;;;;5.13;59.72;94842.94;5032903;28;20384;-81
2021/12/07 06:44:36;;;;;;;3.20;2.05;;;;;;;5.60;58.67;94840.69;5032022;28;20036;-70
2021/12/07 06:47:01;;;;;;;1.90;1.80;;;;;;;5.13;59.98;94829.75;5031910;28;20105;-70
2021/12/07 06:49:27;;;;;;;2.10;1.75;;;;;;;5.17;59.86;94833.41;5029526;28;20605;-70
2021/12/07 06:51:52;;;;;;;1.92;1.77;;;;;;;5.94;58.05;94837.97;5034994;28;20057;-69
2021/12/07 06:54:18;;;;;;;1.52;1.42;;;;;;;5.47;59.17;94857.94;5031653;28;20041;-71
2021/12/07 06:56:44;;;;;;;2.20;1.50;;;;;;;5.00;60.93;94850.69;5031642;28;20566;-70
2021/12/07 06:59:09;;;;;;;1.40;1.30;;;;;;;5.47;59.68;94858.72;5031269;28;20434;-72
2021/12/07 07:01:36;;;;;;;3.58;1.60;;;;;;;5.93;59.11;94857.50;5031347;28;20657;-72
2021/12/07 07:04:02;;;;;;;2.78;1.60;;;;;;;5.54;59.71;94873.44;5027216;28;20160;-70
2021/12/07 07:06:28;;;;;;;4.30;1.60;;;;;;;5.03;60.89;94843.03;5035058;28;20026;-71
2021/12/07 07:08:53;;;;;;;1.95;1.75;;;;;;;5.30;60.12;94845.16;5029950;28;20040;-71
2021/12/07 07:11:20;;;;;;;2.88;1.92;;;;;;;5.52;59.20;94871.06;5031052;28;20112;-71
2021/12/07 07:13:46;;;;;;;4.68;2.30;;;;;;;5.43;59.70;94865.63;5031865;28;20472;-76
2021/12/07 07:16:12;;;;;;;5.32;1.60;;;;;;;5.12;59.97;94862.47;5030347;28;20164;-69
2021/12/07 07:18:38;;;;;;;2.22;1.98;;;;;;;5.42;60.03;94873.81;5031075;28;20941;-69
2021/12/07 07:21:04;;;;;;;3.20;1.85;;;;;;;6.07;58.81;94886.66;5033202;28;20108;-67
2021/12/07 07:23:30;;;;;;;1.35;1.25;;;;;;;5.60;58.85;94883.66;5031141;28;20021;-69
2021/12/07 07:25:56;;;;;;;2.90;1.98;;;;;;;6.33;57.00;94881.88;5031446;28;20121;-69
2021/12/07 07:28:24;;;;;;;2.25;1.77;;;;;;;6.08;57.66;94912.00;5031333;28;20458;-69
2021/12/07 07:30:50;;;;;;;1.95;1.73;;;;;;;5.64;57.89;94902.38;5029439;28;20108;-69
2021/12/07 07:33:16;;;;;;;1.23;1.13;;;;;;;5.47;58.31;94908.84;5030842;28;20539;-69
2021/12/07 07:35:41;;;;;;;1.80;1.70;;;;;;;6.01;57.68;94903.63;5031554;28;20028;-69
2021/12/07 07:38:07;;;;;;;2.42;1.92;;;;;;;6.11;57.00;94899.03;5030928;28;20112;-70
2021/12/07 07:40:32;;;;;;;3.22;1.83;;;;;;;6.13;56.59;94891.59;5030602;28;20113;-69
2021/12/07 07:42:57;;;;;;;2.45;1.60;;;;;;;5.88;58.59;94921.66;5030983;28;20501;-69
2021/12/07 07:45:23;;;;;;;2.15;1.80;;;;;;;5.41;59.48;94922.34;5031698;28;20017;-70
2021/12/07 07:47:48;;;;;;;3.55;2.00;;;;;;;5.89;58.44;94927.75;5031387;28;20087;-69
2021/12/07 07:50:14;;;;;;;2.92;2.03;;;;;;;6.48;56.92;94924.75;5030723;28;20472;-69
2021/12/07 07:52:41;;;;;;;2.15;1.73;;;;;;;5.96;58.68;94936.94;5035013;28;20083;-70
2021/12/07 07:55:07;;;;;;;2.63;1.67;;;;;;;5.62;58.70;94921.09;5031287;28;20434;-69
2021/12/07 07:57:34;;;;;;;2.53;2.15;;;;;;;7.16;56.25;94939.44;5031466;28;20049;-69
2021/12/07 08:00:01;;;;;;;3.20;1.73;;;;;;;5.96;57.59;94933.50;5030950;28;20025;-69
2021/12/07 08:02:26;;;;;;;2.45;1.95;;;;;;;5.69;57.74;94940.06;5029612;28;20036;-69
2021/12/07 08:04:51;;;;;;;2.50;1.58;;;;;;;5.67;58.67;94946.66;5030448;28;20026;-70
2021/12/07 08:07:17;;;;;;;3.53;1.90;;;;;;;5.37;58.95;94931.88;5031286;28;20029;-69
2021/12/07 08:09:42;;;;;;;2.28;1.80;;;;;;;5.38;59.15;94959.84;5029900;28;20044;-69
2021/12/07 08:12:08;;;;;;;2.17;1.85;;;;;;;5.30;58.71;94931.41;5029525;28;20665;-69
2021/12/07 08:14:34;;;;;;;4.40;2.15;;;;;;;5.03;58.87;94898.38;5030593;28;20025;-70
2021/12/07 08:16:59;;;;;;;2.15;1.73;;;;;;;5.33;59.25;94946.69;5029629;28;20030;-70
2021/12/07 08:19:25;;;;;;;2.38;2.10;;;;;;;5.59;58.46;94939.38;5028295;28;20029;-69
2021/12/07 08:21:50;;;;;;;2.28;2.08;;;;;;;6.04;57.38;94948.75;5032356;28;20017;-69
2021/12/07 08:24:16;;;;;;;2.25;2.05;;;;;;;5.74;57.95;94942.66;5029191;28;20021;-69
2021/12/07 08:26:42;;;;;;;2.67;2.15;;;;;;;5.86;58.28;94949.41;5030153;28;20156;-69
2021/12/07 08:29:07;;;;;;;2.53;2.33;;;;;;;5.38;58.99;94963.28;5029843;28;20477;-70
2021/12/07 08:31:33;;;;;;;1.73;1.48;;;;;;;5.24;58.98;94966.78;5030310;28;20573;-69
2021/12/07 08:34:00;;;;;;;2.42;2.03;;;;;;;5.50;58.90;94962.13;5026491;28;20120;-70
2021/12/07 08:36:27;;;;;;;2.70;1.85;;;;;;;5.67;58.36;94960.66;5033545;28;20020;-70
2021/12/07 08:38:52;;;;;;;1.60;1.50;;;;;;;5.21;60.06;94974.16;5032290;28;20434;-70
2021/12/07 08:41:18;;;;;;;2.40;2.20;;;;;;;6.08;58.28;94962.16;5029633;28;20091;-69
2021/12/07 08:43:45;;;;;;;5.38;2.47;;;;;;;6.12;57.06;94957.91;5029807;28;20658;-70
2021/12/07 08:46:15;;;;;;;5.15;2.22;;;;;;;5.93;58.58;94966.50;5028657;28;20408;-73
2021/12/07 08:48:42;;;;;;;2.50;2.30;;;;;;;6.35;57.13;94967.72;5029354;28;20037;-70
2021/12/07 08:51:09;;;;;;;2.45;2.22;;;;;;;6.13;57.61;94962.91;5032375;28;20024;-69
2021/12/07 08:53:37;;;;;;;4.10;2.58;;;;;;;5.68;58.48;94935.84;5041267;28;20041;-70
2021/12/07 09:01:32;;;;;;;2.65;2.33;;;;;;;5.99;58.28;94975.22;5029357;28;20084;-70
2021/12/07 09:03:59;;;;;;;4.07;2.45;;;;;;;6.45;56.38;94985.31;5028912;28;20035;-70
2021/12/07 09:06:25;;;;;;;4.18;2.10;;;;;;;5.94;58.00;94967.34;5029264;28;20108;-70
2021/12/07 09:08:51;;;;;;;3.45;2.05;;;;;;;6.31;56.46;94971.97;5029395;28;20505;-70
2021/12/07 09:11:17;;;;;;;2.42;2.00;;;;;;;6.59;55.53;94995.97;5028937;28;20029;-69
2021/12/07 09:13:43;;;;;;;2.83;1.92;;;;;;;6.53;55.99;94984.66;5027896;28;20061;-69
2021/12/07 09:16:14;;;;;;;2.75;1.70;;;;;;;6.03;57.32;94989.41;5029376;28;20064;-70
2021/12/07 09:18:41;;;;;;;4.47;2.30;;;;;;;6.58;56.04;95008.41;5029320;28;20450;-70
2021/12/07 09:21:07;;;;;;;2.45;2.10;;;;;;;5.94;57.94;95013.00;5031806;28;20441;-70
2021/12/07 09:23:33;;;;;;;4.40;2.40;;;;;;;6.07;57.95;95008.13;5027479;28;20022;-70
2021/12/07 09:25:59;;;;;;;4.78;2.20;;;;;;;6.47;57.30;94991.09;5027755;28;20034;-70
2021/12/07 09:28:24;;;;;;;3.85;2.40;;;;;;;6.50;56.73;95011.69;5029205;28;20037;-70
2021/12/07 09:30:53;;;;;;;2.63;2.35;;;;;;;6.55;56.22;95003.66;5028810;28;20025;-69
2021/12/07 09:33:21;;;;;;;4.97;2.58;;;;;;;7.03;55.71;95001.00;5030747;28;20049;-68
2021/12/07 09:35:46;;;;;;;2.33;2.10;;;;;;;6.46;56.39;95010.66;5036434;28;20537;-68
2021/12/07 09:38:12;;;;;;;2.70;2.40;;;;;;;6.28;57.42;95012.13;5032957;28;20037;-68
2021/12/07 09:40:38;;;;;;;4.88;2.47;;;;;;;6.41;57.21;94997.50;5032675;28;20038;-68
2021/12/07 09:43:03;;;;;;;2.53;1.85;;;;;;;5.67;58.76;95008.16;5033070;28;20103;-68
2021/12/07 09:45:30;;;;;;;3.90;1.90;;;;;;;6.17;57.17;95005.38;5031916;28;20513;-69
2021/12/07 09:47:59;;;;;;;2.60;1.95;;;;;;;6.27;57.23;95007.16;5032890;28;20030;-71
2021/12/07 09:50:25;;;;;;;3.97;2.17;;;;;;;7.02;55.86;95007.38;5035809;28;20032;-70
2021/12/07 09:52:51;;;;;;;4.25;1.80;;;;;;;6.36;56.95;95002.84;5036389;28;20034;-70
2021/12/07 09:55:18;;;;;;;2.47;2.03;;;;;;;6.82;55.94;95000.47;5032777;28;20025;-70
2021/12/07 09:57:44;;;;;;;2.95;2.03;;;;;;;6.35;56.62;94998.63;5033132;28;20037;-70
2021/12/07 10:00:13;;;;;;;3.00;2.42;;;;;;;6.58;57.12;95002.31;5032699;28;20033;-69
2021/12/07 10:02:38;;;;;;;2.20;2.00;;;;;;;6.69;56.04;95003.78;5031581;28;20083;-70
2021/12/07 10:05:05;;;;;;;3.10;1.80;;;;;;;6.41;56.48;95005.41;5032566;28;20053;-70
2021/12/07 10:07:31;;;;;;;3.05;1.70;;;;;;;6.13;58.06;95002.50;5041198;28;20057;-70
2021/12/07 10:09:56;;;;;;;6.55;2.05;;;;;;;5.88;57.44;94985.00;5036039;28;20057;-70
2021/12/07 10:12:24;;;;;;;2.45;1.40;;;;;;;5.70;58.53;94999.69;5032338;28;20037;-70
2021/12/07 10:14:49;;;;;;;3.53;1.60;;;;;;;6.20;57.08;95007.47;5032490;28;20104;-70
2021/12/07 10:17:21;;;;;;;6.03;1.73;;;;;;;6.24;56.26;94992.63;5032462;28;20052;-70
2021/12/07 10:19:48;;;;;;;3.42;1.70;;;;;;;5.96;57.41;94986.31;5031428;28;20025;-70
2021/12/07 10:22:19;;;;;;;3.55;1.83;;;;;;;6.61;55.08;94989.34;5035416;28;20438;-69
2021/12/07 10:24:48;;;;;;;1.75;1.52;;;;;;;5.87;56.94;94977.38;5032031;28;20083;-69
2021/12/07 10:27:36;;;;;;;6.38;2.00;;;;;;;5.83;57.15;94998.25;5032800;28;20029;-69
2021/12/07 10:30:08;;;;;;;1.88;1.20;;;;;;;5.56;56.92;94990.81;5032352;28;20348;-70
2021/12/07 10:32:38;;;;;;;4.20;2.10;;;;;;;6.53;55.39;94997.09;5032453;28;20056;-69
2021/12/07 10:35:03;;;;;;;4.78;1.25;;;;;;;6.57;54.73;94980.41;5030340;28;20022;-70
2021/12/07 10:37:29;;;;;;;2.10;1.80;;;;;;;7.17;53.27;94983.34;5035991;28;20035;-69
2021/12/07 10:39:57;;;;;;;3.15;2.08;;;;;;;6.96;52.66;94982.03;5031651;28;20378;-69
2021/12/07 10:42:30;;;;;;;4.32;1.60;;;;;;;6.72;54.15;94977.59;5030482;28;20545;-69
2021/12/07 10:44:59;;;;;;;2.35;1.48;;;;;;;6.93;53.72;94987.91;5030577;28;20583;-69
2021/12/07 10:47:25;;;;;;;2.22;1.55;;;;;;;6.30;53.82;94975.69;5032094;28;20025;-69
2021/12/07 10:49:51;;;;;;;5.70;1.98;;;;;;;6.72;54.64;94990.78;5031012;28;20053;-70
2021/12/07 10:52:42;;;;;;;2.97;1.80;;;;;;;6.13;54.18;94991.16;5033689;28;20460;-69
2021/12/07 10:55:12;;;;;;;6.15;2.00;;;;;;;6.86;53.69;94985.63;5031491;28;20037;-69
2021/12/07 10:58:00;;;;;;;3.40;1.67;;;;;;;6.92;52.28;94988.97;5031941;28;20072;-69
2021/12/07 11:00:39;;;;;;;2.90;1.13;;;;;;;6.88;52.79;95003.84;5031214;28;20397;-70
2021/12/07 11:03:08;;;;;;;3.25;1.35;;;;;;;7.37;51.42;94987.56;5031755;28;20096;-69
2021/12/07 11:05:39;;;;;;;3.35;1.42;;;;;;;7.23;51.82;94982.22;5031591;28;20088;-70
2021/12/07 11:08:07;;;;;;;4.88;1.80;;;;;;;7.49;51.61;95008.31;5033768;28;20032;-68
2021/12/07 11:10:37;;;;;;;2.28;1.20;;;;;;;7.46;51.37;95004.34;5031075;28;20491;-69
2021/12/07 11:13:16;;;;;;;2.15;1.08;;;;;;;6.58;53.66;95003.13;5030135;28;20017;-71
2021/12/07 11:16:09;;;;;;;4.05;1.48;;;;;;;7.95;50.70;95003.09;5031555;28;20499;-71
2021/12/07 11:18:38;;;;;;;3.33;1.58;;;;;;;7.50;50.90;95001.94;5031894;28;20021;-71
2021/12/07 11:21:16;;;;;;;3.25;1.48;;;;;;;7.96;50.10;94991.41;5031786;28;20028;-71
2021/12/07 11:23:48;;;;;;;5.45;1.45;;;;;;;7.57;50.76;94991.75;5029960;28;20026;-71
2021/12/07 11:31:45;;;;;;;3.03;1.52;;;;;;;7.41;51.12;94993.06;5030782;28;20076;-69
2021/12/07 11:34:13;;;;;;;1.38;0.85;;;;;;;6.18;53.30;94999.81;5029814;28;20064;-69
2021/12/07 11:36:43;;;;;;;6.82;1.45;;;;;;;6.21;53.58;94999.28;5034163;28;20037;-69
2021/12/07 11:39:48;;;;;;;2.90;1.15;;;;;;;7.20;51.73;95001.28;5029314;28;20029;-70
2021/12/07 11:42:26;;;;;;;1.20;1.10;;;;;;;7.92;49.88;94993.06;5018752;28;20487;-69
2021/12/07 11:44:56;;;;;;;3.70;1.55;;;;;;;7.00;51.93;94994.41;5030750;28;20160;-69
2021/12/07 11:47:33;;;;;;;4.28;1.60;;;;;;;6.84;51.31;95003.59;5031065;28;20048;-71
2021/12/07 11:50:13;;;;;;;2.85;1.20;;;;;;;6.26;53.28;94993.16;5028243;28;20037;-70
2021/12/07 11:52:39;;;;;;;2.72;1.70;;;;;;;7.30;50.76;94998.50;5034198;28;20026;-69
2021/12/07 11:55:06;;;;;;;3.80;2.00;;;;;;;8.26;48.54;94978.72;5028288;28;20122;-71
2021/12/07 11:57:31;;;;;;;2.60;1.17;;;;;;;7.29;49.45;94964.41;5030463;28;20017;-71
2021/12/07 11:59:56;;;;;;;4.00;1.52;;;;;;;7.18;50.09;94992.84;5030161;28;20045;-69
2021/12/07 12:02:24;;;;;;;2.70;1.08;;;;;;;6.80;51.78;94992.00;5030357;28;20024;-71
2021/12/07 12:04:49;;;;;;;2.53;1.60;;;;;;;7.90;49.28;94957.38;5030050;28;20091;-71
2021/12/07 12:07:15;;;;;;;2.55;1.00;;;;;;;6.44;52.54;94981.84;5033951;28;20446;-73
2021/12/07 12:09:46;;;;;;;2.45;1.35;;;;;;;7.41;51.00;95001.00;5033593;28;20017;-71
2021/12/07 12:12:36;;;;;;;2.85;0.95;;;;;;;6.42;53.10;94999.06;5030187;28;20080;-69
2021/12/07 12:15:27;;;;;;;4.22;1.50;;;;;;;7.10;51.05;94987.41;5030417;28;20044;-71
2021/12/07 12:18:20;;;;;;;4.00;1.33;;;;;;;6.99;51.43;94987.53;5030530;28;20025;-71
2021/12/07 12:21:06;;;;;;;5.63;1.50;;;;;;;6.84;53.01;94973.72;5031229;28;20506;-70
2021/12/07 12:23:37;;;;;;;2.65;1.27;;;;;;;7.47;50.62;94982.13;5029950;28;20171;-71
2021/12/07 12:26:08;;;;;;;5.20;2.07;;;;;;;7.56;50.09;94972.44;5030055;28;20107;-71
2021/12/07 12:28:40;;;;;;;3.47;1.57;;;;;;;7.51;50.14;94966.44;5030296;28;20025;-70
2021/12/07 12:31:08;;;;;;;3.80;1.88;;;;;;;9.24;47.50;94962.47;5029591;28;20022;-71
2021/12/07 12:33:45;;;;;;;3.95;1.70;;;;;;;9.22;45.76;94936.25;5029757;28;20095;-71
2021/12/07 12:36:10;;;;;;;3.80;1.60;;;;;;;8.46;47.34;94933.31;5033116;28;20036;-70
2021/12/07 12:38:36;;;;;;;4.60;1.75;;;;;;;8.23;47.69;94950.94;5033642;28;20029;-70
2021/12/07 12:41:07;;;;;;;5.15;1.40;;;;;;;7.92;48.54;94963.16;5029473;28;20148;-70
2021/12/07 12:44:10;;;;;;;5.45;1.40;;;;;;;7.42;50.28;94970.81;5030163;28;20681;-70
2021/12/07 12:46:38;;;;;;;3.33;1.05;;;;;;;7.57;49.15;94954.69;5018000;28;20458;-72
2021/12/07 12:49:07;;;;;;;4.15;1.23;;;;;;;6.97;50.69;94951.91;5029606;28;20032;-70
2021/12/07 12:51:45;;;;;;;4.55;1.60;;;;;;;7.22;49.42;94959.47;5022881;28;20063;-70
2021/12/07 12:54:10;;;;;;;3.13;1.27;;;;;;;7.06;49.47;94947.50;5031056;28;20428;-71
2021/12/07 12:56:37;;;;;;;3.25;1.45;;;;;;;7.95;47.31;94952.75;5029295;28;20025;-70
2021/12/07 12:59:09;;;;;;;5.15;1.77;;;;;;;7.12;50.10;94956.19;5027686;28;20025;-70
2021/12/07 13:01:35;;;;;;;;;;;;;;;6.71;50.79;94952.22;5029432;28;20036;-69
2021/12/07 13:04:13;;;;;;;4.35;1.50;;;;;;;7.00;49.86;94949.44;5029352;28;19913;-70
2021/12/07 13:06:52;;;;;;;2.80;1.35;;;;;;;7.11;49.29;94944.78;5030836;28;20033;-70
2021/12/07 13:09:18;;;;;;;3.65;1.33;;;;;;;8.07;47.94;94941.69;5032497;28;20034;-70
2021/12/07 13:11:45;;;;;;;2.17;1.10;;;;;;;7.18;49.07;94931.22;5028923;28;20160;-70
2021/12/07 13:14:27;;;;;;;3.17;1.20;;;;;;;7.14;49.87;94935.53;5029378;28;20451;-70
2021/12/07 13:16:52;;;;;;;4.85;1.80;;;;;;;7.84;47.89;94937.34;5027595;28;20025;-70
2021/12/07 13:19:18;;;;;;;4.00;1.48;;;;;;;7.67;48.81;94928.06;5029140;28;20033;-70
2021/12/07 13:21:46;;;;;;;5.70;1.40;;;;;;;7.75;49.01;94938.00;5031977;28;20065;-70
2021/12/07 13:24:15;;;;;;;3.75;1.30;;;;;;;7.94;48.21;94937.97;5033108;28;20021;-71
2021/12/07 13:26:50;;;;;;;3.45;1.45;;;;;;;7.14;49.76;94935.53;5029080;28;20025;-70
2021/12/07 13:29:19;;;;;;;3.45;1.60;;;;;;;7.63;48.61;94924.44;5027869;28;20021;-71